Miles City, Montana
Current Conditions -  °F | °C
As of 6:03 AM on Wednesday 26 Nov 2014 (Local Time) from KMLS Reporting Station
Overcast Overcast  
Wind Chill: 28°   Ceiling: 2300
Heat Index: 28°   Visibility: 10mi
Dew Point: 24°   Wind: 0mph
Humidity: 85%   Direction: NA
Pressure: 30.2"   Gusts: NA
Location:  46.41°N, 105.84°W
Report Text: KMLS 261303Z AUTO 00000KT 10SM SCT014 BKN023 OVC032 M02/M04 A3020 RMK AO2 T10221044
Loading
Personal Weather Stations






























Interactive Weather Map New forecast layout! Learn more

10-Day Weather Forecast

Advertisements
Track Severe Weather on mobile